sensor_id;sensor_type;location;lat;lon;timestamp;temperature;humidity
8593;DHT22;4334;49.982;8.398;2023-02-04T00:02:04;9.50;99.90
8593;DHT22;4334;49.982;8.398;2023-02-04T00:04:32;9.50;99.90
8593;DHT22;4334;49.982;8.398;2023-02-04T00:06:58;9.50;99.90
8593;DHT22;4334;49.982;8.398;2023-02-04T00:09:25;9.40;99.90
8593;DHT22;4334;49.982;8.398;2023-02-04T00:11:52;9.40;99.90
8593;DHT22;4334;49.982;8.398;2023-02-04T00:14:19;9.30;99.90
8593;DHT22;4334;49.982;8.398;2023-02-04T00:16:45;9.30;99.90
8593;DHT22;4334;49.982;8.398;2023-02-04T00:19:12;9.30;99.90
8593;DHT22;4334;49.982;8.398;2023-02-04T00:21:40;9.30;99.90
8593;DHT22;4334;49.982;8.398;2023-02-04T00:24:07;9.30;99.90
8593;DHT22;4334;49.982;8.398;2023-02-04T00:26:34;9.30;99.90
8593;DHT22;4334;49.982;8.398;2023-02-04T00:29:01;9.20;99.90
8593;DHT22;4334;49.982;8.398;2023-02-04T00:31:28;9.30;99.90
8593;DHT22;4334;49.982;8.398;2023-02-04T00:33:55;9.20;99.90
8593;DHT22;4334;49.982;8.398;2023-02-04T00:36:22;9.30;99.90
8593;DHT22;4334;49.982;8.398;2023-02-04T00:38:50;9.30;99.90
8593;DHT22;4334;49.982;8.398;2023-02-04T00:41:16;9.30;99.90
8593;DHT22;4334;49.982;8.398;2023-02-04T00:43:43;9.20;99.90
8593;DHT22;4334;49.982;8.398;2023-02-04T00:46:10;6.30;99.90
8593;DHT22;4334;49.982;8.398;2023-02-04T00:48:37;9.20;99.90
8593;DHT22;4334;49.982;8.398;2023-02-04T00:51:03;9.70;99.90
8593;DHT22;4334;49.982;8.398;2023-02-04T00:53:30;9.20;99.90
8593;DHT22;4334;49.982;8.398;2023-02-04T00:55:58;9.10;99.90
8593;DHT22;4334;49.982;8.398;2023-02-04T00:58:25;9.10;99.90
8593;DHT22;4334;49.982;8.398;2023-02-04T01:00:52;9.40;99.90
8593;DHT22;4334;49.982;8.398;2023-02-04T01:03:19;9.00;99.90
8593;DHT22;4334;49.982;8.398;2023-02-04T01:05:45;9.10;99.90
8593;DHT22;4334;49.982;8.398;2023-02-04T01:08:12;9.00;99.90
8593;DHT22;4334;49.982;8.398;2023-02-04T01:10:39;9.00;99.90
8593;DHT22;4334;49.982;8.398;2023-02-04T01:13:08;9.00;99.90
8593;DHT22;4334;49.982;8.398;2023-02-04T01:15:34;8.90;99.90
8593;DHT22;4334;49.982;8.398;2023-02-04T01:18:01;8.90;99.90
8593;DHT22;4334;49.982;8.398;2023-02-04T01:20:28;8.90;99.90
8593;DHT22;4334;49.982;8.398;2023-02-04T01:22:55;8.80;99.90
8593;DHT22;4334;49.982;8.398;2023-02-04T01:25:22;8.80;99.90
8593;DHT22;4334;49.982;8.398;2023-02-04T01:27:48;8.70;99.90
8593;DHT22;4334;49.982;8.398;2023-02-04T01:30:17;8.70;99.90
8593;DHT22;4334;49.982;8.398;2023-02-04T01:32:43;8.80;99.90
8593;DHT22;4334;49.982;8.398;2023-02-04T01:35:10;8.70;99.90
8593;DHT22;4334;49.982;8.398;2023-02-04T01:37:37;8.70;99.90
8593;DHT22;4334;49.982;8.398;2023-02-04T01:40:05;10.70;99.90
8593;DHT22;4334;49.982;8.398;2023-02-04T01:42:32;8.70;99.90
8593;DHT22;4334;49.982;8.398;2023-02-04T01:44:59;8.70;99.90
8593;DHT22;4334;49.982;8.398;2023-02-04T01:47:27;8.80;99.90
8593;DHT22;4334;49.982;8.398;2023-02-04T01:49:55;8.80;99.90
8593;DHT22;4334;49.982;8.398;2023-02-04T01:52:22;8.80;99.90
8593;DHT22;4334;49.982;8.398;2023-02-04T01:54:50;8.80;99.90
8593;DHT22;4334;49.982;8.398;2023-02-04T01:57:17;8.70;99.90
8593;DHT22;4334;49.982;8.398;2023-02-04T01:59:45;8.70;99.90
8593;DHT22;4334;49.982;8.398;2023-02-04T02:02:38;8.60;99.90
8593;DHT22;4334;49.982;8.398;2023-02-04T02:05:06;8.70;99.90
8593;DHT22;4334;49.982;8.398;2023-02-04T02:07:34;8.70;99.90
8593;DHT22;4334;49.982;8.398;2023-02-04T02:10:01;8.70;99.90
8593;DHT22;4334;49.982;8.398;2023-02-04T02:12:28;8.60;99.90
8593;DHT22;4334;49.982;8.398;2023-02-04T02:14:55;8.60;99.90
8593;DHT22;4334;49.982;8.398;2023-02-04T02:17:22;8.50;99.90
8593;DHT22;4334;49.982;8.398;2023-02-04T02:19:51;8.50;99.90
8593;DHT22;4334;49.982;8.398;2023-02-04T02:22:23;12.00;99.90
8593;DHT22;4334;49.982;8.398;2023-02-04T02:24:52;11.20;99.90
8593;DHT22;4334;49.982;8.398;2023-02-04T02:27:19;8.50;99.90
8593;DHT22;4334;49.982;8.398;2023-02-04T02:29:47;8.50;99.90
8593;DHT22;4334;49.982;8.398;2023-02-04T02:32:15;8.60;99.90
8593;DHT22;4334;49.982;8.398;2023-02-04T02:34:42;8.50;99.90
8593;DHT22;4334;49.982;8.398;2023-02-04T02:37:10;8.50;99.90
8593;DHT22;4334;49.982;8.398;2023-02-04T02:39:39;8.50;99.90
8593;DHT22;4334;49.982;8.398;2023-02-04T02:42:11;8.50;99.90
8593;DHT22;4334;49.982;8.398;2023-02-04T02:44:39;8.50;99.90
8593;DHT22;4334;49.982;8.398;2023-02-04T02:47:11;8.40;99.90
8593;DHT22;4334;49.982;8.398;2023-02-04T02:49:39;8.40;99.90
8593;DHT22;4334;49.982;8.398;2023-02-04T02:52:09;8.40;99.90
8593;DHT22;4334;49.982;8.398;2023-02-04T02:54:37;8.30;99.90
8593;DHT22;4334;49.982;8.398;2023-02-04T02:57:11;8.30;99.90
8593;DHT22;4334;49.982;8.398;2023-02-04T02:59:39;8.30;99.90
8593;DHT22;4334;49.982;8.398;2023-02-04T03:02:06;8.30;99.90
8593;DHT22;4334;49.982;8.398;2023-02-04T03:04:37;8.30;99.90
8593;DHT22;4334;49.982;8.398;2023-02-04T03:07:06;8.30;99.90
8593;DHT22;4334;49.982;8.398;2023-02-04T03:09:33;11.40;99.90
8593;DHT22;4334;49.982;8.398;2023-02-04T03:12:00;8.30;99.90
8593;DHT22;4334;49.982;8.398;2023-02-04T03:14:28;8.20;99.90
8593;DHT22;4334;49.982;8.398;2023-02-04T03:16:55;8.20;99.90
8593;DHT22;4334;49.982;8.398;2023-02-04T03:19:24;8.20;99.90
8593;DHT22;4334;49.982;8.398;2023-02-04T03:21:52;8.20;99.90
8593;DHT22;4334;49.982;8.398;2023-02-04T03:24:19;8.20;99.90
8593;DHT22;4334;49.982;8.398;2023-02-04T03:26:46;8.20;99.90
8593;DHT22;4334;49.982;8.398;2023-02-04T03:29:12;8.20;99.90
8593;DHT22;4334;49.982;8.398;2023-02-04T03:31:41;8.20;99.90
8593;DHT22;4334;49.982;8.398;2023-02-04T03:34:07;8.20;99.90
8593;DHT22;4334;49.982;8.398;2023-02-04T03:36:34;8.30;99.90
8593;DHT22;4334;49.982;8.398;2023-02-04T03:39:02;8.20;99.90
8593;DHT22;4334;49.982;8.398;2023-02-04T03:41:29;8.20;99.90
8593;DHT22;4334;49.982;8.398;2023-02-04T03:43:56;8.30;99.90
8593;DHT22;4334;49.982;8.398;2023-02-04T03:46:23;8.20;99.90
8593;DHT22;4334;49.982;8.398;2023-02-04T03:48:51;8.20;99.90
8593;DHT22;4334;49.982;8.398;2023-02-04T03:51:18;8.20;99.90
8593;DHT22;4334;49.982;8.398;2023-02-04T03:53:45;8.10;99.90
8593;DHT22;4334;49.982;8.398;2023-02-04T03:56:11;8.10;99.90
8593;DHT22;4334;49.982;8.398;2023-02-04T03:58:38;8.10;99.90
8593;DHT22;4334;49.982;8.398;2023-02-04T04:01:05;8.00;99.90
8593;DHT22;4334;49.982;8.398;2023-02-04T04:03:32;7.90;99.90
8593;DHT22;4334;49.982;8.398;2023-02-04T04:06:00;10.40;99.90
8593;DHT22;4334;49.982;8.398;2023-02-04T04:08:29;7.90;99.90
8593;DHT22;4334;49.982;8.398;2023-02-04T04:10:56;8.00;99.90
8593;DHT22;4334;49.982;8.398;2023-02-04T04:13:23;8.00;99.90
8593;DHT22;4334;49.982;8.398;2023-02-04T04:15:49;7.90;99.90
8593;DHT22;4334;49.982;8.398;2023-02-04T04:18:16;10.50;99.90
8593;DHT22;4334;49.982;8.398;2023-02-04T04:20:43;7.90;99.90
8593;DHT22;4334;49.982;8.398;2023-02-04T04:23:11;7.90;99.90
8593;DHT22;4334;49.982;8.398;2023-02-04T04:25:38;7.80;99.90
8593;DHT22;4334;49.982;8.398;2023-02-04T04:28:04;7.80;99.90
8593;DHT22;4334;49.982;8.398;2023-02-04T04:30:31;7.80;99.90
8593;DHT22;4334;49.982;8.398;2023-02-04T04:32:58;7.70;99.90
8593;DHT22;4334;49.982;8.398;2023-02-04T04:35:25;7.70;99.90
8593;DHT22;4334;49.982;8.398;2023-02-04T04:37:52;7.60;99.90
8593;DHT22;4334;49.982;8.398;2023-02-04T04:40:20;7.70;99.90
8593;DHT22;4334;49.982;8.398;2023-02-04T04:42:46;7.70;99.90
8593;DHT22;4334;49.982;8.398;2023-02-04T04:45:13;8.40;99.90
8593;DHT22;4334;49.982;8.398;2023-02-04T04:47:40;7.70;99.90
8593;DHT22;4334;49.982;8.398;2023-02-04T04:50:07;7.60;99.90
8593;DHT22;4334;49.982;8.398;2023-02-04T04:52:34;7.60;99.90
8593;DHT22;4334;49.982;8.398;2023-02-04T04:55:01;7.60;99.90
8593;DHT22;4334;49.982;8.398;2023-02-04T04:57:29;7.60;99.90
8593;DHT22;4334;49.982;8.398;2023-02-04T04:59:56;7.60;99.90
8593;DHT22;4334;49.982;8.398;2023-02-04T05:02:23;7.60;99.90
8593;DHT22;4334;49.982;8.398;2023-02-04T05:04:49;7.50;99.90
8593;DHT22;4334;49.982;8.398;2023-02-04T05:07:16;7.50;99.90
8593;DHT22;4334;49.982;8.398;2023-02-04T05:09:43;7.40;99.90
8593;DHT22;4334;49.982;8.398;2023-02-04T05:12:09;7.70;99.90
8593;DHT22;4334;49.982;8.398;2023-02-04T05:14:37;7.30;99.90
8593;DHT22;4334;49.982;8.398;2023-02-04T05:17:05;7.20;99.90
8593;DHT22;4334;49.982;8.398;2023-02-04T05:19:31;7.20;99.90
8593;DHT22;4334;49.982;8.398;2023-02-04T05:21:58;7.20;99.90
8593;DHT22;4334;49.982;8.398;2023-02-04T05:24:26;7.20;99.90
8593;DHT22;4334;49.982;8.398;2023-02-04T05:26:53;7.20;99.90
8593;DHT22;4334;49.982;8.398;2023-02-04T05:29:19;7.20;99.90
8593;DHT22;4334;49.982;8.398;2023-02-04T05:31:47;7.20;99.90
8593;DHT22;4334;49.982;8.398;2023-02-04T05:34:14;7.20;99.90
8593;DHT22;4334;49.982;8.398;2023-02-04T05:36:41;7.30;99.90
8593;DHT22;4334;49.982;8.398;2023-02-04T05:39:08;7.20;99.90
8593;DHT22;4334;49.982;8.398;2023-02-04T05:41:34;7.20;99.90
8593;DHT22;4334;49.982;8.398;2023-02-04T05:44:01;7.20;99.90
8593;DHT22;4334;49.982;8.398;2023-02-04T05:46:28;7.10;99.90
8593;DHT22;4334;49.982;8.398;2023-02-04T05:48:56;7.60;99.90
8593;DHT22;4334;49.982;8.398;2023-02-04T05:51:23;7.00;99.90
8593;DHT22;4334;49.982;8.398;2023-02-04T05:53:49;7.00;99.90
8593;DHT22;4334;49.982;8.398;2023-02-04T05:56:16;6.90;99.90
8593;DHT22;4334;49.982;8.398;2023-02-04T05:58:43;6.90;99.90
8593;DHT22;4334;49.982;8.398;2023-02-04T06:01:10;6.80;99.90
8593;DHT22;4334;49.982;8.398;2023-02-04T06:03:36;6.80;99.90
8593;DHT22;4334;49.982;8.398;2023-02-04T06:06:05;6.80;99.90
8593;DHT22;4334;49.982;8.398;2023-02-04T06:08:32;6.70;99.90
8593;DHT22;4334;49.982;8.398;2023-02-04T06:10:58;6.70;99.90
8593;DHT22;4334;49.982;8.398;2023-02-04T06:13:25;6.80;99.90
8593;DHT22;4334;49.982;8.398;2023-02-04T06:15:52;6.90;99.90
8593;DHT22;4334;49.982;8.398;2023-02-04T06:18:18;6.90;99.90
8593;DHT22;4334;49.982;8.398;2023-02-04T06:20:46;6.90;99.90
8593;DHT22;4334;49.982;8.398;2023-02-04T06:23:14;7.00;99.90
8593;DHT22;4334;49.982;8.398;2023-02-04T06:25:41;7.10;99.90
8593;DHT22;4334;49.982;8.398;2023-02-04T06:28:07;7.10;99.90
8593;DHT22;4334;49.982;8.398;2023-02-04T06:30:34;9.20;99.90
8593;DHT22;4334;49.982;8.398;2023-02-04T06:33:02;7.10;99.90
8593;DHT22;4334;49.982;8.398;2023-02-04T06:35:28;7.20;99.90
8593;DHT22;4334;49.982;8.398;2023-02-04T06:37:55;7.20;99.90
8593;DHT22;4334;49.982;8.398;2023-02-04T06:40:23;7.30;99.90
8593;DHT22;4334;49.982;8.398;2023-02-04T06:42:50;7.30;99.90
8593;DHT22;4334;49.982;8.398;2023-02-04T06:45:17;7.40;99.90
8593;DHT22;4334;49.982;8.398;2023-02-04T06:47:43;7.30;99.90
8593;DHT22;4334;49.982;8.398;2023-02-04T06:50:10;7.30;99.90
8593;DHT22;4334;49.982;8.398;2023-02-04T06:52:37;7.30;99.90
8593;DHT22;4334;49.982;8.398;2023-02-04T06:55:04;7.30;99.90
8593;DHT22;4334;49.982;8.398;2023-02-04T06:57:32;7.20;99.90
8593;DHT22;4334;49.982;8.398;2023-02-04T06:59:59;7.20;99.90
8593;DHT22;4334;49.982;8.398;2023-02-04T07:02:26;7.10;99.90
8593;DHT22;4334;49.982;8.398;2023-02-04T07:04:53;7.00;99.90
8593;DHT22;4334;49.982;8.398;2023-02-04T07:07:19;7.10;99.90
8593;DHT22;4334;49.982;8.398;2023-02-04T07:09:46;7.10;99.90
8593;DHT22;4334;49.982;8.398;2023-02-04T07:12:13;7.10;99.90
8593;DHT22;4334;49.982;8.398;2023-02-04T07:14:41;7.10;99.90
8593;DHT22;4334;49.982;8.398;2023-02-04T07:17:07;7.10;99.90
8593;DHT22;4334;49.982;8.398;2023-02-04T07:19:34;7.00;99.90
8593;DHT22;4334;49.982;8.398;2023-02-04T07:22:01;7.00;99.90
8593;DHT22;4334;49.982;8.398;2023-02-04T07:24:28;7.00;99.90
8593;DHT22;4334;49.982;8.398;2023-02-04T07:26:54;7.00;99.90
8593;DHT22;4334;49.982;8.398;2023-02-04T07:29:21;9.10;99.90
8593;DHT22;4334;49.982;8.398;2023-02-04T07:31:49;7.10;99.90
8593;DHT22;4334;49.982;8.398;2023-02-04T07:34:17;7.20;99.90
8593;DHT22;4334;49.982;8.398;2023-02-04T07:36:44;7.20;99.90
8593;DHT22;4334;49.982;8.398;2023-02-04T07:39:11;7.20;99.90
8593;DHT22;4334;49.982;8.398;2023-02-04T07:41:38;7.20;99.90
8593;DHT22;4334;49.982;8.398;2023-02-04T07:44:04;7.30;99.90
8593;DHT22;4334;49.982;8.398;2023-02-04T07:46:31;10.70;99.90
8593;DHT22;4334;49.982;8.398;2023-02-04T07:48:59;7.30;99.90
8593;DHT22;4334;49.982;8.398;2023-02-04T07:51:26;7.40;99.90
8593;DHT22;4334;49.982;8.398;2023-02-04T07:53:53;8.70;99.90
8593;DHT22;4334;49.982;8.398;2023-02-04T07:56:19;7.50;99.90
8593;DHT22;4334;49.982;8.398;2023-02-04T07:58:46;7.60;99.90
8593;DHT22;4334;49.982;8.398;2023-02-04T08:01:13;7.60;99.90
8593;DHT22;4334;49.982;8.398;2023-02-04T08:03:41;7.70;99.90
8593;DHT22;4334;49.982;8.398;2023-02-04T08:06:09;7.80;99.90
8593;DHT22;4334;49.982;8.398;2023-02-04T08:08:36;7.80;99.90
8593;DHT22;4334;49.982;8.398;2023-02-04T08:11:03;10.90;99.90
8593;DHT22;4334;49.982;8.398;2023-02-04T08:13:30;7.80;99.90
8593;DHT22;4334;49.982;8.398;2023-02-04T08:15:56;7.90;99.90
8593;DHT22;4334;49.982;8.398;2023-02-04T08:18:23;7.90;99.90
8593;DHT22;4334;49.982;8.398;2023-02-04T08:20:50;8.00;99.90
8593;DHT22;4334;49.982;8.398;2023-02-04T08:23:18;8.10;99.90
8593;DHT22;4334;49.982;8.398;2023-02-04T08:25:45;8.10;99.90
8593;DHT22;4334;49.982;8.398;2023-02-04T08:28:12;8.30;99.90
8593;DHT22;4334;49.982;8.398;2023-02-04T08:30:38;8.40;99.90
8593;DHT22;4334;49.982;8.398;2023-02-04T08:33:05;8.70;99.90
8593;DHT22;4334;49.982;8.398;2023-02-04T08:35:32;9.00;99.90
8593;DHT22;4334;49.982;8.398;2023-02-04T08:37:59;10.90;99.90
8593;DHT22;4334;49.982;8.398;2023-02-04T08:40:27;9.50;99.90
8593;DHT22;4334;49.982;8.398;2023-02-04T08:42:54;9.50;99.90
8593;DHT22;4334;49.982;8.398;2023-02-04T08:45:21;9.50;99.90
8593;DHT22;4334;49.982;8.398;2023-02-04T08:47:47;13.40;99.90
8593;DHT22;4334;49.982;8.398;2023-02-04T08:50:15;10.60;99.90
8593;DHT22;4334;49.982;8.398;2023-02-04T08:52:42;11.00;99.90
8593;DHT22;4334;49.982;8.398;2023-02-04T08:55:09;10.80;99.90
8593;DHT22;4334;49.982;8.398;2023-02-04T08:57:37;10.40;99.90
8593;DHT22;4334;49.982;8.398;2023-02-04T09:00:04;10.20;99.90
8593;DHT22;4334;49.982;8.398;2023-02-04T09:02:31;9.60;99.90
8593;DHT22;4334;49.982;8.398;2023-02-04T09:04:58;9.40;99.90
8593;DHT22;4334;49.982;8.398;2023-02-04T09:07:25;9.40;99.90
8593;DHT22;4334;49.982;8.398;2023-02-04T09:09:51;9.50;99.90
8593;DHT22;4334;49.982;8.398;2023-02-04T09:12:18;9.50;99.90
8593;DHT22;4334;49.982;8.398;2023-02-04T09:14:46;9.50;99.90
8593;DHT22;4334;49.982;8.398;2023-02-04T09:17:13;13.30;99.90
8593;DHT22;4334;49.982;8.398;2023-02-04T09:19:40;9.70;99.90
8593;DHT22;4334;49.982;8.398;2023-02-04T09:22:06;9.70;99.90
8593;DHT22;4334;49.982;8.398;2023-02-04T09:24:33;9.70;99.90
8593;DHT22;4334;49.982;8.398;2023-02-04T09:27:00;9.70;99.90
8593;DHT22;4334;49.982;8.398;2023-02-04T09:29:27;9.60;99.90
8593;DHT22;4334;49.982;8.398;2023-02-04T09:31:55;9.50;99.90
8593;DHT22;4334;49.982;8.398;2023-02-04T09:34:22;9.50;99.90
8593;DHT22;4334;49.982;8.398;2023-02-04T09:36:49;9.70;99.90
8593;DHT22;4334;49.982;8.398;2023-02-04T09:39:16;9.60;99.90
8593;DHT22;4334;49.982;8.398;2023-02-04T09:41:43;9.60;99.90
8593;DHT22;4334;49.982;8.398;2023-02-04T09:44:13;12.90;99.90
8593;DHT22;4334;49.982;8.398;2023-02-04T09:46:42;9.70;99.90
8593;DHT22;4334;49.982;8.398;2023-02-04T09:49:12;10.10;99.90
8593;DHT22;4334;49.982;8.398;2023-02-04T09:51:40;9.50;99.90
8593;DHT22;4334;49.982;8.398;2023-02-04T09:54:11;9.30;99.90
8593;DHT22;4334;49.982;8.398;2023-02-04T09:56:39;9.20;99.90
8593;DHT22;4334;49.982;8.398;2023-02-04T09:59:10;9.10;99.90
8593;DHT22;4334;49.982;8.398;2023-02-04T10:01:37;9.10;99.90
8593;DHT22;4334;49.982;8.398;2023-02-04T10:04:07;9.10;99.90
8593;DHT22;4334;49.982;8.398;2023-02-04T10:06:36;10.70;99.90
8593;DHT22;4334;49.982;8.398;2023-02-04T10:09:03;9.20;99.90
8593;DHT22;4334;49.982;8.398;2023-02-04T10:11:33;9.20;99.90
8593;DHT22;4334;49.982;8.398;2023-02-04T10:14:01;9.20;99.90
8593;DHT22;4334;49.982;8.398;2023-02-04T10:16:31;9.30;99.90
8593;DHT22;4334;49.982;8.398;2023-02-04T10:19:00;9.50;99.90
8593;DHT22;4334;49.982;8.398;2023-02-04T10:21:29;9.50;99.90
8593;DHT22;4334;49.982;8.398;2023-02-04T10:23:59;9.30;99.90
8593;DHT22;4334;49.982;8.398;2023-02-04T10:26:28;9.20;99.90
8593;DHT22;4334;49.982;8.398;2023-02-04T10:28:59;9.30;99.90
8593;DHT22;4334;49.982;8.398;2023-02-04T10:31:34;9.30;99.90
8593;DHT22;4334;49.982;8.398;2023-02-04T10:34:09;9.30;99.90
8593;DHT22;4334;49.982;8.398;2023-02-04T10:36:36;9.10;99.90
8593;DHT22;4334;49.982;8.398;2023-02-04T10:39:09;8.90;99.90
8593;DHT22;4334;49.982;8.398;2023-02-04T10:41:36;9.10;99.90
8593;DHT22;4334;49.982;8.398;2023-02-04T10:44:06;9.20;99.90
8593;DHT22;4334;49.982;8.398;2023-02-04T10:46:33;9.40;99.90
8593;DHT22;4334;49.982;8.398;2023-02-04T10:48:59;9.30;99.90
8593;DHT22;4334;49.982;8.398;2023-02-04T10:51:29;9.40;99.90
8593;DHT22;4334;49.982;8.398;2023-02-04T10:53:55;9.50;99.90
8593;DHT22;4334;49.982;8.398;2023-02-04T10:56:41;9.50;99.90
8593;DHT22;4334;49.982;8.398;2023-02-04T10:59:16;9.60;99.90
8593;DHT22;4334;49.982;8.398;2023-02-04T11:01:46;9.70;99.90
8593;DHT22;4334;49.982;8.398;2023-02-04T11:04:13;9.90;99.90
8593;DHT22;4334;49.982;8.398;2023-02-04T11:06:39;13.60;99.90
8593;DHT22;4334;49.982;8.398;2023-02-04T11:09:09;11.50;99.90
8593;DHT22;4334;49.982;8.398;2023-02-04T11:11:36;11.50;99.90
8593;DHT22;4334;49.982;8.398;2023-02-04T11:14:22;10.60;99.90
8593;DHT22;4334;49.982;8.398;2023-02-04T11:16:49;10.70;99.90
8593;DHT22;4334;49.982;8.398;2023-02-04T11:19:30;10.90;99.90
8593;DHT22;4334;49.982;8.398;2023-02-04T11:22:07;13.60;99.90
8593;DHT22;4334;49.982;8.398;2023-02-04T11:24:45;10.50;99.90
8593;DHT22;4334;49.982;8.398;2023-02-04T11:27:20;10.40;99.90
8593;DHT22;4334;49.982;8.398;2023-02-04T11:29:49;10.40;99.90
8593;DHT22;4334;49.982;8.398;2023-02-04T11:32:34;10.30;99.90
8593;DHT22;4334;49.982;8.398;2023-02-04T11:37:51;10.20;99.90
8593;DHT22;4334;49.982;8.398;2023-02-04T11:40:23;10.30;99.90
8593;DHT22;4334;49.982;8.398;2023-02-04T11:42:59;10.20;99.90
8593;DHT22;4334;49.982;8.398;2023-02-04T11:45:29;10.30;99.90
8593;DHT22;4334;49.982;8.398;2023-02-04T11:47:58;10.70;99.90
8593;DHT22;4334;49.982;8.398;2023-02-04T11:50:28;11.80;99.90
8593;DHT22;4334;49.982;8.398;2023-02-04T11:52:56;12.80;99.90
8593;DHT22;4334;49.982;8.398;2023-02-04T11:55:23;13.60;99.90
8593;DHT22;4334;49.982;8.398;2023-02-04T11:57:52;14.40;99.90
8593;DHT22;4334;49.982;8.398;2023-02-04T12:00:21;13.70;99.90
8593;DHT22;4334;49.982;8.398;2023-02-04T12:02:55;13.00;99.90
8593;DHT22;4334;49.982;8.398;2023-02-04T12:05:34;12.80;99.90
8593;DHT22;4334;49.982;8.398;2023-02-04T12:08:10;12.50;99.90
8593;DHT22;4334;49.982;8.398;2023-02-04T12:10:37;12.00;99.90
8593;DHT22;4334;49.982;8.398;2023-02-04T12:13:12;11.50;99.90
8593;DHT22;4334;49.982;8.398;2023-02-04T12:15:39;11.20;99.90
8593;DHT22;4334;49.982;8.398;2023-02-04T12:18:08;11.20;99.90
8593;DHT22;4334;49.982;8.398;2023-02-04T12:20:37;10.50;99.90
8593;DHT22;4334;49.982;8.398;2023-02-04T12:23:05;10.60;99.90
8593;DHT22;4334;49.982;8.398;2023-02-04T12:25:33;10.60;99.90
8593;DHT22;4334;49.982;8.398;2023-02-04T12:28:00;10.50;99.90
8593;DHT22;4334;49.982;8.398;2023-02-04T12:30:26;10.70;99.90
8593;DHT22;4334;49.982;8.398;2023-02-04T12:32:53;11.10;99.90
8593;DHT22;4334;49.982;8.398;2023-02-04T12:35:22;12.20;99.90
8593;DHT22;4334;49.982;8.398;2023-02-04T12:37:48;13.80;99.90
8593;DHT22;4334;49.982;8.398;2023-02-04T12:40:16;15.00;99.90
8593;DHT22;4334;49.982;8.398;2023-02-04T12:42:44;14.60;99.90
8593;DHT22;4334;49.982;8.398;2023-02-04T12:45:12;14.80;99.90
8593;DHT22;4334;49.982;8.398;2023-02-04T12:47:39;16.50;99.90
8593;DHT22;4334;49.982;8.398;2023-02-04T12:50:08;14.50;99.90
8593;DHT22;4334;49.982;8.398;2023-02-04T12:52:36;15.70;99.90
8593;DHT22;4334;49.982;8.398;2023-02-04T12:55:05;15.10;99.90
8593;DHT22;4334;49.982;8.398;2023-02-04T12:57:32;15.00;99.90
8593;DHT22;4334;49.982;8.398;2023-02-04T12:59:59;15.90;99.90
8593;DHT22;4334;49.982;8.398;2023-02-04T13:02:27;17.20;99.90
8593;DHT22;4334;49.982;8.398;2023-02-04T13:04:54;17.70;99.90
8593;DHT22;4334;49.982;8.398;2023-02-04T13:07:21;15.90;99.90
8593;DHT22;4334;49.982;8.398;2023-02-04T13:09:49;18.10;99.60
8593;DHT22;4334;49.982;8.398;2023-02-04T13:12:17;17.30;99.90
8593;DHT22;4334;49.982;8.398;2023-02-04T13:14:44;16.30;99.90
8593;DHT22;4334;49.982;8.398;2023-02-04T13:17:11;15.80;99.90
8593;DHT22;4334;49.982;8.398;2023-02-04T13:19:37;16.30;99.90
8593;DHT22;4334;49.982;8.398;2023-02-04T13:22:04;16.00;99.90
8593;DHT22;4334;49.982;8.398;2023-02-04T13:24:31;15.30;99.90
8593;DHT22;4334;49.982;8.398;2023-02-04T13:26:59;15.70;99.90
8593;DHT22;4334;49.982;8.398;2023-02-04T13:29:26;15.60;99.90
8593;DHT22;4334;49.982;8.398;2023-02-04T13:31:52;13.60;99.90
8593;DHT22;4334;49.982;8.398;2023-02-04T13:34:19;12.30;99.90
8593;DHT22;4334;49.982;8.398;2023-02-04T13:36:46;11.90;99.90
8593;DHT22;4334;49.982;8.398;2023-02-04T13:39:13;11.40;99.90
8593;DHT22;4334;49.982;8.398;2023-02-04T13:41:40;11.40;99.90
8593;DHT22;4334;49.982;8.398;2023-02-04T13:44:08;13.20;99.90
8593;DHT22;4334;49.982;8.398;2023-02-04T13:46:35;10.70;99.90
8593;DHT22;4334;49.982;8.398;2023-02-04T13:49:02;10.40;99.90
8593;DHT22;4334;49.982;8.398;2023-02-04T13:51:29;10.20;99.90
8593;DHT22;4334;49.982;8.398;2023-02-04T13:53:56;10.00;99.90
8593;DHT22;4334;49.982;8.398;2023-02-04T13:56:23;9.80;99.90
8593;DHT22;4334;49.982;8.398;2023-02-04T13:58:50;9.60;99.90
8593;DHT22;4334;49.982;8.398;2023-02-04T14:01:19;9.50;99.90
8593;DHT22;4334;49.982;8.398;2023-02-04T14:03:46;9.80;99.90
8593;DHT22;4334;49.982;8.398;2023-02-04T14:06:13;9.50;99.90
8593;DHT22;4334;49.982;8.398;2023-02-04T14:08:40;9.40;99.90
8593;DHT22;4334;49.982;8.398;2023-02-04T14:11:07;9.40;99.90
8593;DHT22;4334;49.982;8.398;2023-02-04T14:13:34;9.50;99.90
8593;DHT22;4334;49.982;8.398;2023-02-04T14:16:01;9.60;99.90
8593;DHT22;4334;49.982;8.398;2023-02-04T14:18:29;9.60;99.90
8593;DHT22;4334;49.982;8.398;2023-02-04T14:20:56;9.80;99.90
8593;DHT22;4334;49.982;8.398;2023-02-04T14:23:22;9.80;99.90
8593;DHT22;4334;49.982;8.398;2023-02-04T14:25:49;9.80;99.90
8593;DHT22;4334;49.982;8.398;2023-02-04T14:28:16;9.70;99.90
8593;DHT22;4334;49.982;8.398;2023-02-04T14:30:43;9.70;99.90
8593;DHT22;4334;49.982;8.398;2023-02-04T14:33:10;9.60;99.90
8593;DHT22;4334;49.982;8.398;2023-02-04T14:35:38;9.50;99.90
8593;DHT22;4334;49.982;8.398;2023-02-04T14:38:05;9.40;99.90
8593;DHT22;4334;49.982;8.398;2023-02-04T14:40:32;9.30;99.90
8593;DHT22;4334;49.982;8.398;2023-02-04T14:42:59;9.30;99.90
8593;DHT22;4334;49.982;8.398;2023-02-04T14:45:25;9.20;99.90
8593;DHT22;4334;49.982;8.398;2023-02-04T14:47:52;10.30;99.90
8593;DHT22;4334;49.982;8.398;2023-02-04T14:50:21;9.30;99.90
8593;DHT22;4334;49.982;8.398;2023-02-04T14:52:56;9.20;99.90
8593;DHT22;4334;49.982;8.398;2023-02-04T14:55:23;9.30;99.90
8593;DHT22;4334;49.982;8.398;2023-02-04T14:57:50;9.20;99.90
8593;DHT22;4334;49.982;8.398;2023-02-04T15:00:18;9.30;99.90
8593;DHT22;4334;49.982;8.398;2023-02-04T15:02:45;9.30;99.90
8593;DHT22;4334;49.982;8.398;2023-02-04T15:05:13;9.40;99.90
8593;DHT22;4334;49.982;8.398;2023-02-04T15:07:40;9.40;99.90
8593;DHT22;4334;49.982;8.398;2023-02-04T15:10:09;9.50;99.90
8593;DHT22;4334;49.982;8.398;2023-02-04T15:12:36;9.60;99.90
8593;DHT22;4334;49.982;8.398;2023-02-04T15:15:04;11.50;99.90
8593;DHT22;4334;49.982;8.398;2023-02-04T15:17:31;9.60;99.90
8593;DHT22;4334;49.982;8.398;2023-02-04T15:19:58;9.50;99.90
8593;DHT22;4334;49.982;8.398;2023-02-04T15:22:25;9.40;99.90
8593;DHT22;4334;49.982;8.398;2023-02-04T15:24:51;9.30;99.90
8593;DHT22;4334;49.982;8.398;2023-02-04T15:27:19;9.20;99.90
8593;DHT22;4334;49.982;8.398;2023-02-04T15:29:46;9.70;99.90
8593;DHT22;4334;49.982;8.398;2023-02-04T15:32:13;9.00;99.90
8593;DHT22;4334;49.982;8.398;2023-02-04T15:34:40;9.00;99.90
8593;DHT22;4334;49.982;8.398;2023-02-04T15:37:07;9.00;99.90
8593;DHT22;4334;49.982;8.398;2023-02-04T15:39:35;8.90;99.90
8593;DHT22;4334;49.982;8.398;2023-02-04T15:42:02;8.90;99.90
8593;DHT22;4334;49.982;8.398;2023-02-04T15:44:30;8.90;99.90
8593;DHT22;4334;49.982;8.398;2023-02-04T15:46:57;8.80;99.90
8593;DHT22;4334;49.982;8.398;2023-02-04T15:49:24;8.70;99.90
8593;DHT22;4334;49.982;8.398;2023-02-04T15:51:51;8.60;99.90
8593;DHT22;4334;49.982;8.398;2023-02-04T15:54:18;8.50;99.90
8593;DHT22;4334;49.982;8.398;2023-02-04T15:56:44;8.30;99.90
8593;DHT22;4334;49.982;8.398;2023-02-04T15:59:11;8.30;99.90
8593;DHT22;4334;49.982;8.398;2023-02-04T16:01:41;9.20;99.90
8593;DHT22;4334;49.982;8.398;2023-02-04T16:04:08;8.20;99.90
8593;DHT22;4334;49.982;8.398;2023-02-04T16:06:34;8.20;99.90
8593;DHT22;4334;49.982;8.398;2023-02-04T16:09:02;8.10;99.90
8593;DHT22;4334;49.982;8.398;2023-02-04T16:11:29;8.10;99.90
8593;DHT22;4334;49.982;8.398;2023-02-04T16:13:57;8.10;99.90
8593;DHT22;4334;49.982;8.398;2023-02-04T16:16:24;8.00;99.90
8593;DHT22;4334;49.982;8.398;2023-02-04T16:18:52;8.10;99.90
8593;DHT22;4334;49.982;8.398;2023-02-04T16:21:19;8.10;99.90